Time;durP1;ratioP1;P1;durP2;ratioP2;P2;SDS_P1;SDS_P2;PMS_P1;PMS_P2;Temp;Humidity;BMP_temperature;BMP_pressure;BME280_temperature;BME280_humidity;BME280_pressure;Samples;Min_cycle;Max_cycle;Signal;HPM_P1;HPM_P2
2023/12/11 00:01:56;;;;;;;12.32;5.10;;;;;;;-7.39;61.43;100806.06;5093025;28;20028;-70
2023/12/11 00:04:22;;;;;;;16.25;5.18;;;;;;;-7.69;61.38;100732.97;5091588;28;20114;-72
2023/12/11 00:06:47;;;;;;;13.23;5.00;;;;;;;-7.23;60.78;100799.28;5092649;28;20023;-69
2023/12/11 00:09:13;;;;;;;11.70;5.03;;;;;;;-7.35;61.31;100795.69;5087350;28;20036;-71
2023/12/11 00:11:39;;;;;;;15.15;4.68;;;;;;;-7.20;60.63;100807.09;5076974;28;20168;-71
2023/12/11 00:14:04;;;;;;;11.55;4.53;;;;;;;-7.32;61.44;100810.47;5076452;28;20040;-71
2023/12/11 00:16:30;;;;;;;12.95;5.38;;;;;;;-7.30;61.33;100813.06;5076506;28;20037;-62
2023/12/11 00:18:57;;;;;;;12.10;3.72;;;;;;;-7.18;61.01;100821.00;5087112;28;20024;-70
2023/12/11 00:21:22;;;;;;;12.65;4.82;;;;;;;-7.31;60.29;100790.50;5096872;28;20561;-70
2023/12/11 00:23:48;;;;;;;15.40;6.07;;;;;;;-7.29;60.47;100807.00;5092911;28;20028;-64
2023/12/11 00:26:14;;;;;;;10.75;5.35;;;;;;;-7.35;60.62;100797.44;5078218;28;20049;-70
2023/12/11 00:28:40;;;;;;;11.55;5.40;;;;;;;-7.38;60.55;100795.66;5076297;28;20051;-71
2023/12/11 00:31:07;;;;;;;13.52;4.78;;;;;;;-7.37;60.42;100789.59;5076087;28;20154;-71
2023/12/11 00:33:35;;;;;;;12.02;5.68;;;;;;;-7.46;61.43;100793.84;5076134;28;20443;-71
2023/12/11 00:36:01;;;;;;;11.60;4.93;;;;;;;-7.24;60.36;100797.50;5075388;28;20029;-72
2023/12/11 00:38:26;;;;;;;19.05;6.13;;;;;;;-7.41;60.75;100798.25;5081904;28;20032;-72
2023/12/11 00:40:53;;;;;;;10.52;5.20;;;;;;;-7.41;61.09;100779.16;5096475;28;20024;-70
2023/12/11 00:43:18;;;;;;;14.73;5.13;;;;;;;-7.40;61.23;100792.19;5087049;28;20035;-71
2023/12/11 00:45:44;;;;;;;11.52;5.07;;;;;;;-7.34;61.08;100775.78;5075738;28;20024;-70
2023/12/11 00:48:10;;;;;;;8.45;3.65;;;;;;;-7.14;60.87;100783.72;5075907;28;20458;-71
2023/12/11 00:50:35;;;;;;;15.52;6.30;;;;;;;-7.10;60.59;100780.28;5080807;28;20030;-70
2023/12/11 00:53:01;;;;;;;12.57;5.28;;;;;;;-7.26;60.94;100773.19;5091180;28;20032;-70
2023/12/11 00:55:26;;;;;;;14.98;5.47;;;;;;;-7.27;61.03;100781.88;5075733;28;20036;-69
2023/12/11 00:57:52;;;;;;;15.30;5.75;;;;;;;-7.23;61.27;100765.44;5075552;28;20050;-70
2023/12/11 01:00:18;;;;;;;11.27;4.93;;;;;;;-7.14;60.49;100764.63;5075619;28;20025;-71
2023/12/11 01:02:43;;;;;;;13.73;5.18;;;;;;;-7.17;60.90;100775.91;5075525;28;20140;-72
2023/12/11 01:05:09;;;;;;;14.73;5.80;;;;;;;-7.25;61.09;100769.75;5075530;28;20431;-70
2023/12/11 01:07:35;;;;;;;17.58;5.80;;;;;;;-7.23;61.33;100768.91;5080696;28;20034;-69
2023/12/11 01:10:03;;;;;;;13.52;5.13;;;;;;;-7.20;61.39;100768.06;5095884;28;20035;-71
2023/12/11 01:12:30;;;;;;;17.35;6.05;;;;;;;-7.04;60.32;100783.78;5096095;28;20028;-71
2023/12/11 01:14:56;;;;;;;15.73;6.25;;;;;;;-7.15;61.32;100760.28;5095543;28;20085;-72
2023/12/11 01:17:22;;;;;;;8.43;3.25;;;;;;;-7.13;61.20;100769.84;5094601;28;20071;-72
2023/12/11 01:19:47;;;;;;;16.42;6.22;;;;;;;-7.15;61.28;100766.38;5095600;28;20024;-71
2023/12/11 01:22:13;;;;;;;12.68;6.03;;;;;;;-7.10;61.14;100769.88;5090201;28;20410;-71
2023/12/11 01:24:38;;;;;;;15.07;6.30;;;;;;;-7.35;61.48;100727.19;5075313;28;20438;-71
2023/12/11 01:27:04;;;;;;;16.23;5.75;;;;;;;-7.15;61.31;100753.34;5075089;28;20052;-60
2023/12/11 01:29:30;;;;;;;14.90;5.72;;;;;;;-7.16;61.16;100758.53;5075208;28;20455;-71
2023/12/11 01:31:57;;;;;;;21.73;6.97;;;;;;;-7.16;61.17;100751.59;5076008;28;20436;-70
2023/12/11 01:34:22;;;;;;;16.48;6.28;;;;;;;-7.23;61.27;100748.09;5075007;28;20043;-71
2023/12/11 01:36:48;;;;;;;11.85;4.75;;;;;;;-7.15;61.32;100745.53;5075060;28;20110;-70
2023/12/11 01:39:14;;;;;;;16.13;7.28;;;;;;;-7.23;61.43;100744.63;5074943;28;20059;-72
2023/12/11 01:41:39;;;;;;;15.13;6.05;;;;;;;-7.28;61.39;100748.91;5074950;28;20028;-70
2023/12/11 01:44:05;;;;;;;19.52;5.90;;;;;;;-7.64;61.98;100694.88;5074881;28;20039;-57
2023/12/11 01:46:31;;;;;;;14.90;6.75;;;;;;;-7.30;62.03;100741.09;5076391;28;20028;-71
2023/12/11 01:48:57;;;;;;;15.55;6.00;;;;;;;-7.26;61.74;100750.66;5093957;28;20044;-72
2023/12/11 01:51:25;;;;;;;14.50;6.45;;;;;;;-7.15;61.66;100742.94;5094881;28;20408;-72
2023/12/11 01:53:51;;;;;;;14.80;7.00;;;;;;;-7.22;61.97;100749.81;5095179;28;20024;-70
2023/12/11 01:56:18;;;;;;;14.77;6.45;;;;;;;-7.23;62.13;100744.63;5093139;28;20020;-72
2023/12/11 01:58:45;;;;;;;19.13;7.15;;;;;;;-7.25;62.39;100757.63;5074147;28;20109;-68
2023/12/11 02:01:13;;;;;;;17.75;6.80;;;;;;;-7.29;62.62;100734.16;5076213;28;20370;-71
2023/12/11 02:03:40;;;;;;;16.15;6.40;;;;;;;-7.14;62.63;100729.06;5074633;28;20040;-63
2023/12/11 02:06:06;;;;;;;14.80;6.40;;;;;;;-7.19;62.76;100735.09;5073790;28;20028;-62
2023/12/11 02:08:32;;;;;;;17.75;6.28;;;;;;;-7.17;62.98;100742.06;5074523;28;20447;-71
2023/12/11 02:10:58;;;;;;;17.90;7.13;;;;;;;-7.11;62.34;100734.28;5074165;28;20070;-71
2023/12/11 02:13:24;;;;;;;16.13;6.13;;;;;;;-7.10;62.29;100725.63;5074584;28;20075;-71
2023/12/11 02:15:51;;;;;;;16.30;5.85;;;;;;;-6.97;61.87;100736.97;5083535;28;20031;-70
2023/12/11 02:18:18;;;;;;;21.20;8.55;;;;;;;-7.12;62.59;100736.88;5094462;28;20096;-71
2023/12/11 02:20:45;;;;;;;17.48;7.03;;;;;;;-7.23;63.07;100734.22;5094434;28;20024;-71
2023/12/11 02:23:19;;;;;;;17.67;7.13;;;;;;;-7.32;63.37;100709.00;5081693;28;20020;-69
2023/12/11 02:25:49;;;;;;;14.98;5.43;;;;;;;-7.04;62.20;100736.91;5074457;28;20036;-71
2023/12/11 02:28:15;;;;;;;21.02;7.75;;;;;;;-7.05;62.59;100746.47;5074078;28;20052;-70
2023/12/11 02:30:53;;;;;;;13.93;6.60;;;;;;;-7.10;63.04;100749.03;5074663;28;20033;-71
2023/12/11 02:33:18;;;;;;;18.20;6.40;;;;;;;-7.09;63.12;100750.78;5074072;28;20328;-71
2023/12/11 02:35:44;;;;;;;17.85;6.25;;;;;;;-7.01;62.76;100760.38;5074111;28;20116;-70
2023/12/11 02:38:10;;;;;;;18.92;7.25;;;;;;;-7.05;63.03;100769.91;5073582;28;20050;-66
2023/12/11 02:40:35;;;;;;;16.67;6.93;;;;;;;-7.03;63.26;100767.28;5073951;28;20052;-72
2023/12/11 02:43:01;;;;;;;17.70;7.00;;;;;;;-7.10;63.17;100767.25;5073819;28;20028;-70
2023/12/11 02:45:26;;;;;;;16.05;6.97;;;;;;;-7.22;63.28;100743.75;5085739;28;20055;-71
2023/12/11 02:47:56;;;;;;;15.10;6.30;;;;;;;-7.09;63.22;100761.19;5093683;28;20032;-71
2023/12/11 02:50:22;;;;;;;21.20;7.75;;;;;;;-7.06;62.81;100747.34;5093751;28;20362;-70
2023/12/11 02:52:47;;;;;;;17.17;6.93;;;;;;;-7.06;63.45;100756.00;5093663;28;20028;-69
2023/12/11 02:55:13;;;;;;;18.55;7.88;;;;;;;-7.02;63.10;100751.69;5093686;28;20028;-70
2023/12/11 02:57:39;;;;;;;17.00;6.72;;;;;;;-7.10;63.35;100745.59;5093855;28;20114;-61
2023/12/11 03:00:06;;;;;;;19.70;7.50;;;;;;;-7.01;63.07;100742.13;5091223;28;20028;-70
2023/12/11 03:02:31;;;;;;;19.65;7.47;;;;;;;-7.12;63.13;100732.53;5073239;28;20028;-70
2023/12/11 03:04:58;;;;;;;13.82;6.38;;;;;;;-7.10;63.45;100740.38;5073240;28;20031;-72
2023/12/11 03:07:25;;;;;;;14.65;5.20;;;;;;;-7.05;63.54;100725.66;5073041;28;20024;-71
2023/12/11 03:09:51;;;;;;;15.10;7.35;;;;;;;-7.06;63.08;100750.78;5077602;28;20479;-72
2023/12/11 03:12:17;;;;;;;19.52;7.95;;;;;;;-7.16;63.96;100729.91;5093302;28;20032;-71
2023/12/11 03:14:43;;;;;;;15.43;7.32;;;;;;;-7.17;64.24;100739.47;5093374;28;20107;-72
2023/12/11 03:17:09;;;;;;;16.23;7.03;;;;;;;-7.08;64.04;100742.09;5091829;28;20467;-73
2023/12/11 03:19:34;;;;;;;20.08;7.35;;;;;;;-7.10;63.89;100742.97;5093296;28;20032;-71
2023/12/11 03:22:00;;;;;;;19.75;7.63;;;;;;;-7.14;64.15;100746.41;5091095;28;20818;-71
2023/12/11 03:24:25;;;;;;;20.65;7.78;;;;;;;-7.19;64.78;100748.09;5093424;28;20033;-71
2023/12/11 03:26:51;;;;;;;16.67;7.22;;;;;;;-7.13;64.83;100754.22;5092916;28;20135;-72
2023/12/11 03:29:17;;;;;;;18.65;7.28;;;;;;;-7.02;64.15;100746.50;5093188;28;20450;-71
2023/12/11 03:31:42;;;;;;;20.08;7.38;;;;;;;-7.03;64.12;100755.16;5093332;28;20498;-71
2023/12/11 03:34:08;;;;;;;14.98;7.38;;;;;;;-7.06;64.55;100752.53;5091638;28;20035;-71
2023/12/11 03:36:34;;;;;;;18.35;7.57;;;;;;;-6.96;63.17;100746.53;5092936;28;20115;-72
2023/12/11 03:38:59;;;;;;;20.15;8.43;;;;;;;-7.11;64.25;100742.09;5092910;28;20043;-72
2023/12/11 03:41:25;;;;;;;20.23;7.85;;;;;;;-7.13;64.75;100741.22;5093344;28;20366;-72
2023/12/11 03:43:50;;;;;;;20.45;8.18;;;;;;;-7.08;63.95;100734.31;5091128;28;20032;-71
2023/12/11 03:46:16;;;;;;;18.67;8.18;;;;;;;-7.08;64.26;100746.47;5091040;28;20031;-71
2023/12/11 03:48:42;;;;;;;17.92;6.47;;;;;;;-7.04;64.34;100748.22;5093105;28;20335;-62
2023/12/11 03:51:07;;;;;;;17.55;7.53;;;;;;;-7.08;64.40;100730.84;5093121;28;20061;-70
2023/12/11 03:53:33;;;;;;;17.25;7.07;;;;;;;-7.10;65.00;100730.81;5092590;28;20032;-72
2023/12/11 03:55:58;;;;;;;22.50;9.40;;;;;;;-6.99;64.64;100743.03;5092707;28;20035;-72
2023/12/11 03:58:24;;;;;;;21.67;7.80;;;;;;;-7.01;64.69;100724.81;5091109;28;20031;-71
2023/12/11 04:00:50;;;;;;;21.55;7.70;;;;;;;-6.96;64.75;100730.06;5074400;28;20028;-72
2023/12/11 04:03:15;;;;;;;20.77;8.30;;;;;;;-6.89;64.79;100721.41;5072437;28;20126;-73
2023/12/11 04:05:41;;;;;;;17.42;8.18;;;;;;;-6.88;64.09;100723.16;5072815;28;20067;-74
2023/12/11 04:08:07;;;;;;;17.92;7.70;;;;;;;-6.87;64.26;100718.78;5072517;28;20028;-71
2023/12/11 04:10:32;;;;;;;19.05;7.95;;;;;;;-6.82;64.49;100732.72;5072634;28;20029;-73
2023/12/11 04:13:00;;;;;;;16.83;7.70;;;;;;;-6.81;64.65;100729.25;5072371;28;20028;-71
2023/12/11 04:15:25;;;;;;;18.83;7.75;;;;;;;-6.81;64.40;100726.66;5085119;28;20032;-70
2023/12/11 04:17:51;;;;;;;18.30;7.90;;;;;;;-6.64;62.96;100721.53;5092893;28;20032;-71
2023/12/11 04:20:17;;;;;;;23.67;8.00;;;;;;;-6.71;63.61;100727.56;5092863;28;20075;-70
2023/12/11 04:22:42;;;;;;;20.60;7.38;;;;;;;-6.82;63.75;100712.75;5092090;28;20040;-72
2023/12/11 04:25:08;;;;;;;15.30;5.18;;;;;;;-6.63;63.11;100733.69;5075862;28;20036;-71
2023/12/11 04:27:34;;;;;;;20.52;8.55;;;;;;;-6.73;63.55;100735.38;5072496;28;20245;-72
2023/12/11 04:29:59;;;;;;;19.50;7.25;;;;;;;-6.77;63.88;100731.88;5083460;28;20114;-72
2023/12/11 04:32:25;;;;;;;22.15;8.02;;;;;;;-6.83;63.86;100729.25;5092523;28;20096;-71
2023/12/11 04:34:50;;;;;;;18.80;7.88;;;;;;;-6.77;63.61;100731.88;5092276;28;20024;-74
2023/12/11 04:37:16;;;;;;;26.52;7.95;;;;;;;-6.71;63.93;100722.38;5092471;28;20028;-72
2023/12/11 04:39:41;;;;;;;22.83;8.25;;;;;;;-6.66;63.90;100720.66;5092720;28;20028;-72
2023/12/11 04:42:07;;;;;;;16.67;7.43;;;;;;;-6.52;62.60;100744.16;5092354;28;20319;-73
2023/12/11 04:44:33;;;;;;;19.80;7.80;;;;;;;-6.67;63.70;100730.19;5087651;28;20028;-72
2023/12/11 04:46:58;;;;;;;25.02;9.02;;;;;;;-6.70;63.31;100726.72;5072082;28;20337;-72
2023/12/11 04:49:24;;;;;;;16.00;7.28;;;;;;;-6.67;63.81;100743.22;5072853;28;20032;-72
2023/12/11 04:51:50;;;;;;;20.25;7.93;;;;;;;-6.58;63.65;100731.97;5071746;28;20035;-70
2023/12/11 04:54:15;;;;;;;17.60;6.22;;;;;;;-6.54;63.68;100720.69;5073124;28;20413;-61
2023/12/11 04:56:41;;;;;;;20.08;8.10;;;;;;;-6.64;64.17;100716.31;5076167;28;20455;-72
2023/12/11 04:59:07;;;;;;;22.27;8.15;;;;;;;-6.52;63.50;100733.72;5076498;28;20129;-72
2023/12/11 05:01:32;;;;;;;22.45;8.88;;;;;;;-6.54;62.95;100733.72;5075718;28;20424;-71
2023/12/11 05:03:58;;;;;;;18.08;8.23;;;;;;;-6.60;62.95;100733.69;5075797;28;20029;-70
2023/12/11 05:06:23;;;;;;;20.15;8.75;;;;;;;-6.57;63.57;100732.84;5075233;28;20462;-73
2023/12/11 05:08:49;;;;;;;15.40;7.65;;;;;;;-6.58;63.14;100731.97;5075436;28;20024;-72
2023/12/11 05:11:14;;;;;;;15.45;8.18;;;;;;;-6.51;62.64;100736.38;5075944;28;20025;-74
2023/12/11 05:13:40;;;;;;;15.15;7.10;;;;;;;-6.49;62.70;100726.81;5076327;28;20063;-73
2023/12/11 05:16:06;;;;;;;27.00;8.52;;;;;;;-6.50;62.43;100725.06;5074317;28;20108;-72
2023/12/11 05:18:31;;;;;;;21.73;8.70;;;;;;;-6.57;63.08;100743.28;5075388;28;20040;-73
2023/12/11 05:20:57;;;;;;;13.95;5.85;;;;;;;-6.49;62.84;100726.81;5074985;28;20085;-72
2023/12/11 05:23:23;;;;;;;19.05;8.05;;;;;;;-6.52;63.29;100710.28;5074932;28;20024;-72
2023/12/11 05:25:48;;;;;;;20.17;8.60;;;;;;;-6.60;63.16;100717.22;5075107;28;20032;-69
2023/12/11 05:28:14;;;;;;;18.67;8.02;;;;;;;-6.63;63.03;100705.03;5082470;28;20501;-73
2023/12/11 05:30:39;;;;;;;20.23;8.85;;;;;;;-6.46;62.40;100710.31;5094927;28;20051;-72
2023/12/11 05:33:05;;;;;;;21.25;8.18;;;;;;;-6.57;62.91;100712.88;5095203;28;20031;-73
2023/12/11 05:35:31;;;;;;;20.70;7.88;;;;;;;-6.42;62.21;100716.41;5095293;28;20032;-72
2023/12/11 05:37:59;;;;;;;18.20;7.63;;;;;;;-6.45;61.86;100706.84;5086746;28;20021;-70
2023/12/11 05:40:25;;;;;;;22.30;8.85;;;;;;;-6.55;62.76;100710.28;5074951;28;20036;-71
2023/12/11 05:42:51;;;;;;;22.50;8.65;;;;;;;-6.57;63.00;100723.28;5080803;28;20489;-72
2023/12/11 05:45:16;;;;;;;17.70;8.43;;;;;;;-6.48;62.45;100732.88;5095245;28;20034;-70
2023/12/11 05:47:42;;;;;;;22.08;8.45;;;;;;;-6.63;63.11;100721.53;5094911;28;20027;-72
2023/12/11 05:50:08;;;;;;;18.30;8.48;;;;;;;-6.63;63.42;100731.09;5094783;28;20043;-70
2023/12/11 05:52:33;;;;;;;21.52;7.43;;;;;;;-6.48;62.72;100709.44;5094967;28;20451;-71
2023/12/11 05:54:59;;;;;;;21.67;8.60;;;;;;;-6.61;62.61;100698.09;5095131;28;20039;-72
2023/12/11 05:57:24;;;;;;;21.00;8.93;;;;;;;-6.49;63.04;100716.38;5089166;28;20028;-71
2023/12/11 05:59:51;;;;;;;14.77;6.82;;;;;;;-6.40;62.70;100712.06;5073713;28;20503;-70
2023/12/11 06:02:16;;;;;;;22.30;6.65;;;;;;;-6.36;61.92;100703.38;5078219;28;20044;-72
2023/12/11 06:04:42;;;;;;;21.20;7.57;;;;;;;-6.41;62.15;100699.91;5074600;28;20347;-72
2023/12/11 06:07:07;;;;;;;22.30;9.25;;;;;;;-6.95;62.42;100627.66;5073801;28;20029;-73
2023/12/11 06:09:33;;;;;;;21.75;8.95;;;;;;;-6.53;62.58;100709.41;5074409;28;20115;-71
2023/12/11 06:11:58;;;;;;;22.55;8.98;;;;;;;-6.45;63.10;100700.75;5077803;28;20417;-66
2023/12/11 06:14:24;;;;;;;17.98;8.80;;;;;;;-6.40;62.83;100707.72;5074577;28;20029;-71
2023/12/11 06:16:50;;;;;;;22.15;8.50;;;;;;;-6.33;62.28;100697.34;5074693;28;20448;-70
2023/12/11 06:19:15;;;;;;;19.77;8.13;;;;;;;-6.27;61.98;100679.97;5074329;28;20032;-70
2023/12/11 06:21:42;;;;;;;20.80;7.30;;;;;;;-6.21;62.50;100716.47;5075593;28;20101;-71
2023/12/11 06:24:07;;;;;;;15.60;7.47;;;;;;;-6.26;62.81;100689.53;5094445;28;20024;-70
2023/12/11 06:26:34;;;;;;;20.02;8.05;;;;;;;-6.14;62.44;100691.31;5091726;28;20059;-70
2023/12/11 06:29:01;;;;;;;12.85;5.10;;;;;;;-6.07;61.62;100685.22;5073775;28;20040;-72
2023/12/11 06:31:27;;;;;;;18.45;7.53;;;;;;;-6.16;61.90;100697.38;5074049;28;20036;-71
2023/12/11 06:33:53;;;;;;;19.98;7.70;;;;;;;-6.29;62.78;100701.69;5074018;28;20362;-70
2023/12/11 06:36:21;;;;;;;14.07;6.03;;;;;;;-6.15;62.66;100699.97;5074156;28;20025;-70
2023/12/11 06:38:50;;;;;;;19.17;7.63;;;;;;;-6.13;62.69;100699.97;5074069;28;20132;-70
2023/12/11 06:41:17;;;;;;;14.43;7.07;;;;;;;-6.07;62.64;100686.94;5074959;28;20024;-71
2023/12/11 06:43:46;;;;;;;19.48;6.97;;;;;;;-5.96;62.36;100687.81;5092210;28;20462;-70
2023/12/11 06:46:12;;;;;;;17.63;7.93;;;;;;;-5.95;62.83;100681.72;5072612;28;20558;-66
2023/12/11 06:48:37;;;;;;;16.80;7.60;;;;;;;-5.78;62.07;100681.75;5073241;28;20508;-64
2023/12/11 06:51:03;;;;;;;20.50;8.77;;;;;;;-5.84;61.69;100678.25;5073444;28;20028;-65
2023/12/11 06:53:30;;;;;;;17.30;8.30;;;;;;;-5.79;61.65;100686.94;5073427;28;20028;-64
2023/12/11 06:55:55;;;;;;;18.02;7.00;;;;;;;-5.66;61.61;100687.84;5074360;28;20020;-66
2023/12/11 06:58:21;;;;;;;16.58;7.85;;;;;;;-5.68;61.43;100685.22;5073934;28;20447;-65
2023/12/11 07:00:47;;;;;;;18.60;7.68;;;;;;;-5.81;61.30;100673.91;5073459;28;20032;-67
2023/12/11 07:03:12;;;;;;;23.63;8.32;;;;;;;-5.84;61.92;100678.25;5073141;28;20782;-64
2023/12/11 07:05:42;;;;;;;16.83;7.55;;;;;;;-5.79;62.27;100674.78;5074488;28;20036;-66
2023/12/11 07:08:07;;;;;;;21.70;7.72;;;;;;;-5.72;62.19;100678.28;5093489;28;20032;-65
2023/12/11 07:10:33;;;;;;;22.05;8.02;;;;;;;-5.60;62.25;100681.72;5090432;28;20358;-64
2023/12/11 07:12:58;;;;;;;17.77;8.13;;;;;;;-5.59;61.19;100686.97;5072910;28;20390;-65
2023/12/11 07:15:24;;;;;;;12.98;5.50;;;;;;;-5.51;61.90;100685.22;5073168;28;20328;-67
2023/12/11 07:17:50;;;;;;;16.95;7.63;;;;;;;-5.52;61.58;100682.63;5073209;28;20020;-64
2023/12/11 07:20:15;;;;;;;25.92;8.15;;;;;;;-5.59;61.37;100667.81;5073044;28;20469;-64
2023/12/11 07:22:41;;;;;;;20.83;8.00;;;;;;;-5.58;62.15;100673.06;5073299;28;20033;-65
2023/12/11 07:25:07;;;;;;;17.23;7.57;;;;;;;-5.51;61.88;100679.13;5072881;28;20024;-66
2023/12/11 07:27:33;;;;;;;17.17;7.88;;;;;;;-5.50;61.89;100673.91;5092287;28;20462;-65
2023/12/11 07:30:00;;;;;;;17.88;7.90;;;;;;;-5.73;61.55;100613.03;5092963;28;20358;-66
2023/12/11 07:32:26;;;;;;;18.05;7.60;;;;;;;-5.47;61.61;100652.16;5093463;28;20024;-66
2023/12/11 07:34:52;;;;;;;16.90;8.90;;;;;;;-5.25;61.20;100652.97;5091568;28;20100;-66
2023/12/11 07:37:17;;;;;;;19.60;8.68;;;;;;;-5.34;61.04;100659.09;5074766;28;20029;-65
2023/12/11 07:39:43;;;;;;;16.80;8.10;;;;;;;-5.42;61.23;100660.84;5073837;28;20470;-67
2023/12/11 07:42:08;;;;;;;17.27;7.95;;;;;;;-5.47;61.46;100649.56;5091330;28;20051;-65
2023/12/11 07:44:34;;;;;;;13.75;6.93;;;;;;;-5.37;60.90;100646.03;5092837;28;20036;-65
2023/12/11 07:46:59;;;;;;;16.42;7.38;;;;;;;-5.40;61.08;100648.66;5092761;28;20027;-65
2023/12/11 07:49:25;;;;;;;9.88;4.53;;;;;;;-5.28;60.83;100652.13;5093322;28;20085;-67
2023/12/11 07:51:52;;;;;;;18.50;7.32;;;;;;;-5.64;61.08;100645.22;5089677;28;20031;-65
2023/12/11 07:54:18;;;;;;;18.80;7.60;;;;;;;-5.52;61.35;100686.09;5090283;28;20051;-65
2023/12/11 07:56:43;;;;;;;18.10;6.97;;;;;;;-5.59;61.39;100652.16;5091128;28;20447;-67
2023/12/11 07:59:10;;;;;;;17.20;7.22;;;;;;;-5.64;61.46;100645.22;5092354;28;20035;-68
2023/12/11 08:01:35;;;;;;;18.85;7.50;;;;;;;-5.40;61.02;100639.97;5086223;28;20063;-64
2023/12/11 08:04:01;;;;;;;17.65;7.70;;;;;;;-5.34;60.67;100645.19;5092530;28;20122;-70
2023/12/11 08:06:27;;;;;;;19.50;7.72;;;;;;;-5.39;61.12;100634.75;5092470;28;20088;-68
2023/12/11 08:08:53;;;;;;;14.65;7.38;;;;;;;-5.34;61.37;100625.16;5092583;28;20032;-71
2023/12/11 08:11:21;;;;;;;20.02;7.65;;;;;;;-5.25;60.92;100626.88;5089282;28;20036;-70
2023/12/11 08:13:46;;;;;;;18.20;7.65;;;;;;;-5.16;60.50;100610.31;5092880;28;20054;-70
2023/12/11 08:16:13;;;;;;;17.63;6.85;;;;;;;-5.04;60.39;100614.63;5092679;28;20028;-68
2023/12/11 08:18:40;;;;;;;19.88;7.35;;;;;;;-5.10;60.30;100615.50;5092521;28;20054;-69
2023/12/11 08:21:06;;;;;;;12.18;5.18;;;;;;;-5.10;60.79;100625.97;5091540;28;20145;-68
2023/12/11 08:23:32;;;;;;;18.88;8.20;;;;;;;-5.53;60.75;100553.03;5091623;28;20044;-68
2023/12/11 08:25:58;;;;;;;16.77;7.10;;;;;;;-5.22;61.29;100598.16;5088084;28;20032;-69
2023/12/11 08:28:24;;;;;;;12.07;5.43;;;;;;;-4.93;60.55;100604.16;5092991;28;20043;-67
2023/12/11 08:30:50;;;;;;;10.13;4.68;;;;;;;-4.86;60.49;100603.22;5095908;28;20032;-71
2023/12/11 08:33:15;;;;;;;15.63;6.50;;;;;;;-5.06;59.53;100575.47;5095001;28;20035;-72
2023/12/11 08:35:41;;;;;;;17.27;6.80;;;;;;;-4.99;59.95;100597.19;5095134;28;20451;-74
2023/12/11 08:38:06;;;;;;;18.73;7.05;;;;;;;-5.03;60.19;100587.66;5116576;28;20053;-72
2023/12/11 08:40:32;;;;;;;15.95;7.40;;;;;;;-5.07;60.73;100604.19;5077865;28;20111;-71
2023/12/11 08:42:58;;;;;;;14.40;6.32;;;;;;;-5.00;60.59;100597.22;5112061;28;20040;-68
2023/12/11 08:45:24;;;;;;;17.58;7.70;;;;;;;-4.90;59.74;100597.19;5075449;28;20327;-69
2023/12/11 08:47:49;;;;;;;17.25;7.20;;;;;;;-4.91;59.41;100594.56;5075275;28;20124;-69
2023/12/11 08:50:16;;;;;;;17.83;7.55;;;;;;;-5.14;60.07;100582.47;5088475;28;20035;-66
2023/12/11 08:52:43;;;;;;;13.93;5.70;;;;;;;-5.08;59.86;100592.88;5095184;28;20043;-72
2023/12/11 08:55:08;;;;;;;15.82;7.18;;;;;;;-5.14;60.31;100579.84;5078212;28;20408;-72
2023/12/11 08:57:34;;;;;;;17.08;7.07;;;;;;;-5.00;60.01;100576.31;5089857;28;20059;-70
2023/12/11 09:00:01;;;;;;;15.23;5.60;;;;;;;-4.83;59.70;100576.25;5090637;28;20033;-73
2023/12/11 09:02:26;;;;;;;9.48;3.92;;;;;;;-4.94;59.72;100579.78;5108287;28;20059;-74
2023/12/11 09:04:52;;;;;;;14.27;6.40;;;;;;;-5.11;60.14;100587.66;5093814;28;20066;-64
2023/12/11 09:07:17;;;;;;;14.18;6.07;;;;;;;-5.23;60.37;100566.84;5094948;28;20101;-73
2023/12/11 09:09:43;;;;;;;16.77;7.22;;;;;;;-5.38;61.49;100580.81;5089133;28;20451;-73
2023/12/11 09:12:08;;;;;;;15.70;7.20;;;;;;;-5.31;61.29;100564.25;5078539;28;20040;-73
2023/12/11 09:14:34;;;;;;;18.92;7.72;;;;;;;-5.22;60.72;100584.25;5100429;28;20032;-75
2023/12/11 09:17:00;;;;;;;14.13;6.35;;;;;;;-5.18;60.44;100554.63;5096076;28;20040;-75
2023/12/11 09:19:27;;;;;;;19.92;7.22;;;;;;;-5.19;60.80;100552.91;5101155;28;20038;-74
2023/12/11 09:21:53;;;;;;;20.80;7.38;;;;;;;-5.27;60.87;100539.88;5101745;28;20031;-76
2023/12/11 09:24:18;;;;;;;7.47;3.65;;;;;;;-4.93;60.26;100544.06;5104976;28;20032;-73
2023/12/11 09:26:44;;;;;;;15.52;6.68;;;;;;;-5.06;60.30;100557.22;5098231;28;20488;-74
2023/12/11 09:29:10;;;;;;;19.70;7.60;;;;;;;-5.31;60.75;100547.72;5086883;28;20485;-69
2023/12/11 09:31:37;;;;;;;14.70;6.97;;;;;;;-5.29;60.56;100546.00;5077089;28;20174;-72
2023/12/11 09:34:03;;;;;;;16.92;7.35;;;;;;;-5.40;61.44;100538.19;5094910;28;20127;-71
2023/12/11 09:36:28;;;;;;;19.38;7.43;;;;;;;-5.30;60.79;100524.22;5094477;28;20401;-67
2023/12/11 09:38:55;;;;;;;16.42;6.70;;;;;;;-5.26;61.22;100525.09;5080070;28;20043;-75
2023/12/11 09:41:21;;;;;;;16.77;6.63;;;;;;;-5.34;60.79;100518.13;5092045;28;20036;-76
2023/12/11 09:43:48;;;;;;;13.95;5.13;;;;;;;-5.24;60.26;100507.69;5087124;28;20441;-75
2023/12/11 09:46:18;;;;;;;16.35;5.78;;;;;;;-5.50;60.53;100477.34;5081613;28;20448;-77
2023/12/11 09:48:46;;;;;;;14.20;6.80;;;;;;;-5.20;61.42;100520.69;5091969;28;20024;-75
2023/12/11 09:51:13;;;;;;;14.07;6.18;;;;;;;-5.11;60.51;100535.44;5084507;28;20165;-75
2023/12/11 09:53:39;;;;;;;15.02;7.43;;;;;;;-5.22;60.71;100521.59;5109232;28;20027;-72
2023/12/11 09:56:05;;;;;;;17.63;6.45;;;;;;;-5.24;60.77;100528.56;5095332;28;20032;-73
2023/12/11 09:58:31;;;;;;;16.48;7.13;;;;;;;-5.37;61.33;100518.16;5093874;28;20318;-76
2023/12/11 10:01:00;;;;;;;18.13;7.15;;;;;;;-5.51;60.46;100475.59;5079399;28;20115;-74
2023/12/11 10:03:29;;;;;;;18.45;7.35;;;;;;;-5.34;60.59;100520.75;5087053;28;20110;-69
2023/12/11 10:05:59;;;;;;;17.30;6.82;;;;;;;-5.36;61.16;100506.84;5064530;28;20031;-68
2023/12/11 10:08:25;;;;;;;16.40;6.32;;;;;;;-5.50;60.90;100495.59;5090674;28;20039;-66
2023/12/11 10:11:11;;;;;;;20.98;6.65;;;;;;;-5.36;61.58;100503.38;5091767;28;20089;-69
2023/12/11 10:13:37;;;;;;;17.63;7.53;;;;;;;-5.54;61.34;100473.00;5092889;28;20051;-68
2023/12/11 10:16:08;;;;;;;19.33;7.22;;;;;;;-5.40;61.59;100501.66;5093964;28;20036;-68
2023/12/11 10:18:47;;;;;;;13.30;5.70;;;;;;;-5.23;61.09;100493.75;5090747;28;20031;-65
2023/12/11 10:21:13;;;;;;;18.45;7.05;;;;;;;-5.22;60.93;100495.47;5075926;28;20115;-66
2023/12/11 10:23:39;;;;;;;11.50;4.97;;;;;;;-5.54;60.83;100415.59;5084738;28;20545;-68
2023/12/11 10:26:06;;;;;;;12.65;5.43;;;;;;;-5.21;61.08;100498.06;5092674;28;20088;-65
2023/12/11 10:28:32;;;;;;;21.40;7.07;;;;;;;-5.29;61.15;100493.78;5106741;28;20438;-66
2023/12/11 10:31:01;;;;;;;16.63;7.03;;;;;;;-5.35;61.45;100505.97;5102227;28;20047;-66
2023/12/11 10:33:30;;;;;;;18.30;7.25;;;;;;;-5.37;61.89;100494.66;5092366;28;20040;-67
2023/12/11 10:36:11;;;;;;;13.38;5.20;;;;;;;-5.51;61.60;100442.53;5092999;28;20105;-65
2023/12/11 10:38:38;;;;;;;14.38;6.32;;;;;;;-5.25;61.79;100503.31;5086826;28;20028;-67
2023/12/11 10:41:05;;;;;;;12.05;4.85;;;;;;;-5.10;61.24;100495.41;5092980;28;20047;-64
2023/12/11 10:43:41;;;;;;;14.32;5.95;;;;;;;-5.07;61.29;100484.94;5092411;28;20028;-66
2023/12/11 10:46:09;;;;;;;12.38;6.25;;;;;;;-5.10;60.86;100484.09;5093123;28;20043;-63
2023/12/11 10:48:35;;;;;;;17.27;6.70;;;;;;;-5.22;61.49;100474.59;5091830;28;20375;-63
2023/12/11 10:51:05;;;;;;;12.88;6.22;;;;;;;-5.37;61.75;100449.44;5093689;28;20039;-63
2023/12/11 10:53:33;;;;;;;17.50;6.93;;;;;;;-5.11;61.40;100478.00;5091486;28;20039;-65
2023/12/11 10:56:01;;;;;;;15.93;6.60;;;;;;;-5.21;60.71;100434.56;5092546;28;20110;-64
2023/12/11 10:58:28;;;;;;;15.48;6.10;;;;;;;-4.97;60.50;100479.69;5093132;28;20036;-66
2023/12/11 11:01:00;;;;;;;15.60;6.28;;;;;;;-5.02;61.07;100477.09;5093606;28;20043;-64
2023/12/11 11:03:27;;;;;;;19.98;6.60;;;;;;;-5.40;61.43;100429.44;5093411;28;20028;-66
2023/12/11 11:05:54;;;;;;;13.52;5.32;;;;;;;-5.19;60.67;100456.28;5092556;28;20196;-64
2023/12/11 11:08:51;;;;;;;13.57;4.35;;;;;;;-5.11;60.96;100466.69;5091663;28;20381;-65
2023/12/11 11:11:24;;;;;;;15.05;5.97;;;;;;;-5.21;60.91;100465.88;5093018;28;20132;-64
2023/12/11 11:14:14;;;;;;;18.27;7.05;;;;;;;-5.30;61.76;100448.53;5093765;28;20043;-64